sensor_id;sensor_type;location;lat;lon;timestamp;temperature;humidity
78463;SHT31;67756;51.982;5.648;2023-09-18T00:01:33;22.1;74.2
78463;SHT31;67756;51.982;5.648;2023-09-18T00:04:02;22.1;74.2
78463;SHT31;67756;51.982;5.648;2023-09-18T00:06:30;22.1;74.2
78463;SHT31;67756;51.982;5.648;2023-09-18T00:08:59;22.1;74.3
78463;SHT31;67756;51.982;5.648;2023-09-18T00:11:27;22.1;74.4
78463;SHT31;67756;51.982;5.648;2023-09-18T00:13:56;22.1;74.2
78463;SHT31;67756;51.982;5.648;2023-09-18T00:16:24;22.1;74.2
78463;SHT31;67756;51.982;5.648;2023-09-18T00:18:53;22.1;74.2
78463;SHT31;67756;51.982;5.648;2023-09-18T00:21:22;22.1;74.2
78463;SHT31;67756;51.982;5.648;2023-09-18T00:23:52;22.1;74.2
78463;SHT31;67756;51.982;5.648;2023-09-18T00:26:20;22.1;74.4
78463;SHT31;67756;51.982;5.648;2023-09-18T00:28:49;22.1;74.3
78463;SHT31;67756;51.982;5.648;2023-09-18T00:31:19;22.1;74.4
78463;SHT31;67756;51.982;5.648;2023-09-18T00:33:47;22.1;74.5
78463;SHT31;67756;51.982;5.648;2023-09-18T00:36:16;22.1;74.5
78463;SHT31;67756;51.982;5.648;2023-09-18T00:38:45;22.1;74.6
78463;SHT31;67756;51.982;5.648;2023-09-18T00:41:13;22.1;74.6
78463;SHT31;67756;51.982;5.648;2023-09-18T00:43:42;22.0;74.7
78463;SHT31;67756;51.982;5.648;2023-09-18T00:46:11;22.0;74.7
78463;SHT31;67756;51.982;5.648;2023-09-18T00:48:40;22.0;74.8
78463;SHT31;67756;51.982;5.648;2023-09-18T00:51:09;22.0;74.7
78463;SHT31;67756;51.982;5.648;2023-09-18T00:53:38;22.0;74.8
78463;SHT31;67756;51.982;5.648;2023-09-18T00:56:09;22.0;74.8
78463;SHT31;67756;51.982;5.648;2023-09-18T00:58:38;22.0;74.8
78463;SHT31;67756;51.982;5.648;2023-09-18T01:01:07;22.0;74.9
78463;SHT31;67756;51.982;5.648;2023-09-18T01:03:39;22.0;75.0
78463;SHT31;67756;51.982;5.648;2023-09-18T01:06:08;22.0;75.1
78463;SHT31;67756;51.982;5.648;2023-09-18T01:08:36;22.0;75.1
78463;SHT31;67756;51.982;5.648;2023-09-18T01:11:12;22.0;75.1
78463;SHT31;67756;51.982;5.648;2023-09-18T01:13:51;22.0;75.3
78463;SHT31;67756;51.982;5.648;2023-09-18T01:16:25;22.0;75.3
78463;SHT31;67756;51.982;5.648;2023-09-18T01:18:55;21.9;75.3
78463;SHT31;67756;51.982;5.648;2023-09-18T01:21:25;21.9;75.4
78463;SHT31;67756;51.982;5.648;2023-09-18T01:23:54;21.9;75.3
78463;SHT31;67756;51.982;5.648;2023-09-18T01:26:23;21.9;75.4
78463;SHT31;67756;51.982;5.648;2023-09-18T01:28:51;21.9;75.4
78463;SHT31;67756;51.982;5.648;2023-09-18T01:31:20;21.9;75.5
78463;SHT31;67756;51.982;5.648;2023-09-18T01:33:52;21.9;75.6
78463;SHT31;67756;51.982;5.648;2023-09-18T01:36:21;21.9;75.4
78463;SHT31;67756;51.982;5.648;2023-09-18T01:38:50;21.9;75.5
78463;SHT31;67756;51.982;5.648;2023-09-18T01:41:20;21.9;75.5
78463;SHT31;67756;51.982;5.648;2023-09-18T01:43:48;21.9;75.6
78463;SHT31;67756;51.982;5.648;2023-09-18T01:46:17;21.9;75.8
78463;SHT31;67756;51.982;5.648;2023-09-18T01:48:47;21.9;75.6
78463;SHT31;67756;51.982;5.648;2023-09-18T01:51:16;21.9;75.7
78463;SHT31;67756;51.982;5.648;2023-09-18T01:53:46;21.9;75.7
78463;SHT31;67756;51.982;5.648;2023-09-18T01:56:15;21.9;75.7
78463;SHT31;67756;51.982;5.648;2023-09-18T01:58:44;21.9;75.8
78463;SHT31;67756;51.982;5.648;2023-09-18T02:01:12;21.9;75.8
78463;SHT31;67756;51.982;5.648;2023-09-18T02:03:41;21.9;75.7
78463;SHT31;67756;51.982;5.648;2023-09-18T02:06:09;21.9;75.6
78463;SHT31;67756;51.982;5.648;2023-09-18T02:08:38;21.9;75.6
78463;SHT31;67756;51.982;5.648;2023-09-18T02:11:06;21.9;75.5
78463;SHT31;67756;51.982;5.648;2023-09-18T02:13:35;21.8;75.7
78463;SHT31;67756;51.982;5.648;2023-09-18T02:16:03;21.8;75.5
78463;SHT31;67756;51.982;5.648;2023-09-18T02:18:32;21.8;75.6
78463;SHT31;67756;51.982;5.648;2023-09-18T02:21:01;21.8;75.6
78463;SHT31;67756;51.982;5.648;2023-09-18T02:23:29;21.8;75.5
78463;SHT31;67756;51.982;5.648;2023-09-18T02:25:58;21.8;75.5
78463;SHT31;67756;51.982;5.648;2023-09-18T02:28:27;21.8;75.6
78463;SHT31;67756;51.982;5.648;2023-09-18T02:30:56;21.8;75.5
78463;SHT31;67756;51.982;5.648;2023-09-18T02:33:24;21.8;75.5
78463;SHT31;67756;51.982;5.648;2023-09-18T02:35:53;21.8;75.5
78463;SHT31;67756;51.982;5.648;2023-09-18T02:38:21;21.8;75.5
78463;SHT31;67756;51.982;5.648;2023-09-18T02:40:51;21.8;75.5
78463;SHT31;67756;51.982;5.648;2023-09-18T02:43:20;21.8;75.5
78463;SHT31;67756;51.982;5.648;2023-09-18T02:45:49;21.8;75.3
78463;SHT31;67756;51.982;5.648;2023-09-18T02:48:18;21.8;75.2
78463;SHT31;67756;51.982;5.648;2023-09-18T02:50:46;21.8;75.3
78463;SHT31;67756;51.982;5.648;2023-09-18T02:53:19;21.8;75.2
78463;SHT31;67756;51.982;5.648;2023-09-18T02:55:51;21.8;75.3
78463;SHT31;67756;51.982;5.648;2023-09-18T02:58:20;21.8;75.2
78463;SHT31;67756;51.982;5.648;2023-09-18T03:00:50;21.8;75.2
78463;SHT31;67756;51.982;5.648;2023-09-18T03:03:19;21.8;75.3
78463;SHT31;67756;51.982;5.648;2023-09-18T03:05:47;21.8;75.3
78463;SHT31;67756;51.982;5.648;2023-09-18T03:08:16;21.8;75.2
78463;SHT31;67756;51.982;5.648;2023-09-18T03:10:45;21.9;75.2
78463;SHT31;67756;51.982;5.648;2023-09-18T03:13:14;21.9;75.1
78463;SHT31;67756;51.982;5.648;2023-09-18T03:15:46;21.9;75.0
78463;SHT31;67756;51.982;5.648;2023-09-18T03:18:15;21.9;75.0
78463;SHT31;67756;51.982;5.648;2023-09-18T03:20:43;21.9;74.7
78463;SHT31;67756;51.982;5.648;2023-09-18T03:23:12;22.0;74.7
78463;SHT31;67756;51.982;5.648;2023-09-18T03:25:40;22.0;74.6
78463;SHT31;67756;51.982;5.648;2023-09-18T03:28:09;22.0;74.8
78463;SHT31;67756;51.982;5.648;2023-09-18T03:30:37;22.0;74.6
78463;SHT31;67756;51.982;5.648;2023-09-18T03:33:06;22.1;74.5
78463;SHT31;67756;51.982;5.648;2023-09-18T03:35:48;22.1;74.3
78463;SHT31;67756;51.982;5.648;2023-09-18T03:38:17;22.1;74.1
78463;SHT31;67756;51.982;5.648;2023-09-18T03:40:47;22.1;74.1
78463;SHT31;67756;51.982;5.648;2023-09-18T03:43:15;22.2;74.2
78463;SHT31;67756;51.982;5.648;2023-09-18T03:45:44;22.2;74.1
78463;SHT31;67756;51.982;5.648;2023-09-18T03:48:13;22.3;73.9
78463;SHT31;67756;51.982;5.648;2023-09-18T03:50:43;22.3;73.7
78463;SHT31;67756;51.982;5.648;2023-09-18T03:53:11;22.3;73.5
78463;SHT31;67756;51.982;5.648;2023-09-18T03:55:42;22.3;73.5
78463;SHT31;67756;51.982;5.648;2023-09-18T03:58:12;22.4;73.2
78463;SHT31;67756;51.982;5.648;2023-09-18T04:00:41;22.4;73.2
78463;SHT31;67756;51.982;5.648;2023-09-18T04:03:10;22.3;73.1
78463;SHT31;67756;51.982;5.648;2023-09-18T04:05:38;22.3;73.2
78463;SHT31;67756;51.982;5.648;2023-09-18T04:08:07;22.3;73.4
78463;SHT31;67756;51.982;5.648;2023-09-18T04:10:35;22.3;73.5
78463;SHT31;67756;51.982;5.648;2023-09-18T04:13:04;22.2;73.9
78463;SHT31;67756;51.982;5.648;2023-09-18T04:15:33;22.2;73.7
78463;SHT31;67756;51.982;5.648;2023-09-18T04:18:04;22.2;74.0
78463;SHT31;67756;51.982;5.648;2023-09-18T04:20:33;22.2;74.0
78463;SHT31;67756;51.982;5.648;2023-09-18T04:23:21;22.2;74.0
78463;SHT31;67756;51.982;5.648;2023-09-18T04:25:52;22.2;73.9
78463;SHT31;67756;51.982;5.648;2023-09-18T04:28:22;22.2;73.9
78463;SHT31;67756;51.982;5.648;2023-09-18T04:30:50;22.1;74.2
78463;SHT31;67756;51.982;5.648;2023-09-18T04:33:19;22.1;74.3
78463;SHT31;67756;51.982;5.648;2023-09-18T04:35:48;22.1;74.5
78463;SHT31;67756;51.982;5.648;2023-09-18T04:38:17;22.1;74.5
78463;SHT31;67756;51.982;5.648;2023-09-18T04:40:46;22.0;74.7
78463;SHT31;67756;51.982;5.648;2023-09-18T04:43:14;22.0;74.7
78463;SHT31;67756;51.982;5.648;2023-09-18T04:45:44;22.0;74.7
78463;SHT31;67756;51.982;5.648;2023-09-18T04:48:12;22.0;74.7
78463;SHT31;67756;51.982;5.648;2023-09-18T04:50:40;22.0;75.0
78463;SHT31;67756;51.982;5.648;2023-09-18T04:53:09;21.9;75.1
78463;SHT31;67756;51.982;5.648;2023-09-18T04:55:37;21.9;75.1
78463;SHT31;67756;51.982;5.648;2023-09-18T04:58:08;21.9;75.3
78463;SHT31;67756;51.982;5.648;2023-09-18T05:00:36;21.9;76.3
78463;SHT31;67756;51.982;5.648;2023-09-18T05:03:05;21.8;77.8
78463;SHT31;67756;51.982;5.648;2023-09-18T05:05:34;21.7;78.8
78463;SHT31;67756;51.982;5.648;2023-09-18T05:08:06;21.6;79.3
78463;SHT31;67756;51.982;5.648;2023-09-18T05:10:35;21.5;80.0
78463;SHT31;67756;51.982;5.648;2023-09-18T05:13:05;21.4;80.8
78463;SHT31;67756;51.982;5.648;2023-09-18T05:15:33;21.2;81.4
78463;SHT31;67756;51.982;5.648;2023-09-18T05:18:02;21.2;82.1
78463;SHT31;67756;51.982;5.648;2023-09-18T05:20:31;21.1;82.0
78463;SHT31;67756;51.982;5.648;2023-09-18T05:23:00;21.1;82.4
78463;SHT31;67756;51.982;5.648;2023-09-18T05:25:30;21.1;82.7
78463;SHT31;67756;51.982;5.648;2023-09-18T05:28:00;21.1;82.9
78463;SHT31;67756;51.982;5.648;2023-09-18T05:30:33;21.1;82.9
78463;SHT31;67756;51.982;5.648;2023-09-18T05:33:06;21.1;83.3
78463;SHT31;67756;51.982;5.648;2023-09-18T05:35:37;21.1;83.0
78463;SHT31;67756;51.982;5.648;2023-09-18T05:38:08;21.1;83.0
78463;SHT31;67756;51.982;5.648;2023-09-18T05:40:37;21.1;83.2
78463;SHT31;67756;51.982;5.648;2023-09-18T05:43:06;21.1;83.5
78463;SHT31;67756;51.982;5.648;2023-09-18T05:45:36;21.1;83.2
78463;SHT31;67756;51.982;5.648;2023-09-18T05:48:05;21.1;82.9
78463;SHT31;67756;51.982;5.648;2023-09-18T05:50:36;21.1;83.0
78463;SHT31;67756;51.982;5.648;2023-09-18T05:53:04;21.1;82.8
78463;SHT31;67756;51.982;5.648;2023-09-18T05:55:33;21.2;82.5
78463;SHT31;67756;51.982;5.648;2023-09-18T05:58:02;21.2;82.9
78463;SHT31;67756;51.982;5.648;2023-09-18T06:00:33;21.2;83.1
78463;SHT31;67756;51.982;5.648;2023-09-18T06:03:03;21.2;83.2
78463;SHT31;67756;51.982;5.648;2023-09-18T06:05:32;21.2;82.6
78463;SHT31;67756;51.982;5.648;2023-09-18T06:08:03;21.2;82.7
78463;SHT31;67756;51.982;5.648;2023-09-18T06:10:32;21.2;83.0
78463;SHT31;67756;51.982;5.648;2023-09-18T06:13:01;21.2;82.7
78463;SHT31;67756;51.982;5.648;2023-09-18T06:15:32;21.2;82.6
78463;SHT31;67756;51.982;5.648;2023-09-18T06:18:01;21.2;83.2
78463;SHT31;67756;51.982;5.648;2023-09-18T06:20:33;21.2;83.1
78463;SHT31;67756;51.982;5.648;2023-09-18T06:23:01;21.2;83.3
78463;SHT31;67756;51.982;5.648;2023-09-18T06:25:30;21.2;83.3
78463;SHT31;67756;51.982;5.648;2023-09-18T06:27:59;21.2;83.5
78463;SHT31;67756;51.982;5.648;2023-09-18T06:30:31;21.2;83.5
78463;SHT31;67756;51.982;5.648;2023-09-18T06:33:00;21.2;83.4
78463;SHT31;67756;51.982;5.648;2023-09-18T06:35:30;21.2;83.1
78463;SHT31;67756;51.982;5.648;2023-09-18T06:37:58;21.2;83.1
78463;SHT31;67756;51.982;5.648;2023-09-18T06:40:29;21.2;83.3
78463;SHT31;67756;51.982;5.648;2023-09-18T06:43:02;21.2;83.1
78463;SHT31;67756;51.982;5.648;2023-09-18T06:45:30;21.2;82.8
78463;SHT31;67756;51.982;5.648;2023-09-18T06:47:59;21.2;82.8
78463;SHT31;67756;51.982;5.648;2023-09-18T06:50:28;21.2;82.6
78463;SHT31;67756;51.982;5.648;2023-09-18T06:52:57;21.2;82.8
78463;SHT31;67756;51.982;5.648;2023-09-18T06:55:26;21.2;82.5
78463;SHT31;67756;51.982;5.648;2023-09-18T06:57:54;21.2;82.5
78463;SHT31;67756;51.982;5.648;2023-09-18T07:00:23;21.2;82.3
78463;SHT31;67756;51.982;5.648;2023-09-18T07:02:52;21.2;82.2
78463;SHT31;67756;51.982;5.648;2023-09-18T07:05:21;21.2;81.9
78463;SHT31;67756;51.982;5.648;2023-09-18T07:07:50;21.2;82.2
78463;SHT31;67756;51.982;5.648;2023-09-18T07:10:18;21.2;82.6
78463;SHT31;67756;51.982;5.648;2023-09-18T07:12:47;21.2;81.9
78463;SHT31;67756;51.982;5.648;2023-09-18T07:15:17;21.2;81.8
78463;SHT31;67756;51.982;5.648;2023-09-18T07:17:46;21.2;81.8
78463;SHT31;67756;51.982;5.648;2023-09-18T07:20:15;21.2;81.4
78463;SHT31;67756;51.982;5.648;2023-09-18T07:22:46;21.3;81.4
78463;SHT31;67756;51.982;5.648;2023-09-18T07:25:15;21.3;80.9
78463;SHT31;67756;51.982;5.648;2023-09-18T07:27:44;21.3;80.8
78463;SHT31;67756;51.982;5.648;2023-09-18T07:30:14;21.3;81.2
78463;SHT31;67756;51.982;5.648;2023-09-18T07:32:46;21.3;80.6
78463;SHT31;67756;51.982;5.648;2023-09-18T07:35:14;21.3;80.7
78463;SHT31;67756;51.982;5.648;2023-09-18T07:37:43;21.3;80.2
78463;SHT31;67756;51.982;5.648;2023-09-18T07:40:13;21.3;80.3
78463;SHT31;67756;51.982;5.648;2023-09-18T07:42:42;21.3;80.5
78463;SHT31;67756;51.982;5.648;2023-09-18T07:45:12;21.3;80.2
78463;SHT31;67756;51.982;5.648;2023-09-18T07:47:40;21.3;80.5
78463;SHT31;67756;51.982;5.648;2023-09-18T07:50:10;21.4;80.0
78463;SHT31;67756;51.982;5.648;2023-09-18T07:52:40;21.4;80.4
78463;SHT31;67756;51.982;5.648;2023-09-18T07:55:09;21.4;80.0
78463;SHT31;67756;51.982;5.648;2023-09-18T07:57:37;21.4;79.8
78463;SHT31;67756;51.982;5.648;2023-09-18T08:00:07;21.4;79.2
78463;SHT31;67756;51.982;5.648;2023-09-18T08:02:39;21.4;79.4
78463;SHT31;67756;51.982;5.648;2023-09-18T08:05:09;21.5;79.5
78463;SHT31;67756;51.982;5.648;2023-09-18T08:07:37;21.5;79.4
78463;SHT31;67756;51.982;5.648;2023-09-18T08:10:07;21.5;78.8
78463;SHT31;67756;51.982;5.648;2023-09-18T08:12:36;21.5;79.2
78463;SHT31;67756;51.982;5.648;2023-09-18T08:15:05;21.5;79.2
78463;SHT31;67756;51.982;5.648;2023-09-18T08:17:35;21.6;78.8
78463;SHT31;67756;51.982;5.648;2023-09-18T08:20:04;21.6;78.0
78463;SHT31;67756;51.982;5.648;2023-09-18T08:22:38;21.6;77.6
78463;SHT31;67756;51.982;5.648;2023-09-18T08:25:08;21.7;77.0
78463;SHT31;67756;51.982;5.648;2023-09-18T08:27:40;21.7;76.6
78463;SHT31;67756;51.982;5.648;2023-09-18T08:30:11;21.7;77.4
78463;SHT31;67756;51.982;5.648;2023-09-18T08:32:41;21.7;77.1
78463;SHT31;67756;51.982;5.648;2023-09-18T08:35:10;21.7;76.9
78463;SHT31;67756;51.982;5.648;2023-09-18T08:37:39;21.7;76.8
78463;SHT31;67756;51.982;5.648;2023-09-18T08:40:10;21.8;76.5
78463;SHT31;67756;51.982;5.648;2023-09-18T08:42:40;21.8;75.7
78463;SHT31;67756;51.982;5.648;2023-09-18T08:45:16;21.8;75.7
78463;SHT31;67756;51.982;5.648;2023-09-18T08:47:48;21.8;76.4
78463;SHT31;67756;51.982;5.648;2023-09-18T08:50:20;21.8;75.1
78463;SHT31;67756;51.982;5.648;2023-09-18T08:52:49;21.8;75.2
78463;SHT31;67756;51.982;5.648;2023-09-18T08:55:19;21.8;75.0
78463;SHT31;67756;51.982;5.648;2023-09-18T08:57:51;21.8;75.2
78463;SHT31;67756;51.982;5.648;2023-09-18T09:00:20;21.8;74.3
78463;SHT31;67756;51.982;5.648;2023-09-18T09:02:51;21.8;74.6
78463;SHT31;67756;51.982;5.648;2023-09-18T09:05:21;21.8;75.0
78463;SHT31;67756;51.982;5.648;2023-09-18T09:07:50;21.8;75.6
78463;SHT31;67756;51.982;5.648;2023-09-18T09:10:19;21.8;74.6
78463;SHT31;67756;51.982;5.648;2023-09-18T09:12:54;21.9;73.9
78463;SHT31;67756;51.982;5.648;2023-09-18T09:15:26;21.9;73.7
78463;SHT31;67756;51.982;5.648;2023-09-18T09:18:04;21.9;74.1
78463;SHT31;67756;51.982;5.648;2023-09-18T09:20:34;21.9;73.8
78463;SHT31;67756;51.982;5.648;2023-09-18T09:23:05;21.9;74.1
78463;SHT31;67756;51.982;5.648;2023-09-18T09:25:35;21.8;73.0
78463;SHT31;67756;51.982;5.648;2023-09-18T09:28:05;21.8;73.3
78463;SHT31;67756;51.982;5.648;2023-09-18T09:30:35;21.8;73.9
78463;SHT31;67756;51.982;5.648;2023-09-18T09:33:05;21.8;74.3
78463;SHT31;67756;51.982;5.648;2023-09-18T09:35:35;21.8;74.8
78463;SHT31;67756;51.982;5.648;2023-09-18T09:38:10;21.9;74.4
78463;SHT31;67756;51.982;5.648;2023-09-18T09:40:43;21.9;73.3
78463;SHT31;67756;51.982;5.648;2023-09-18T09:43:13;22.0;73.0
78463;SHT31;67756;51.982;5.648;2023-09-18T09:45:42;22.0;73.8
78463;SHT31;67756;51.982;5.648;2023-09-18T09:48:14;22.0;74.1
78463;SHT31;67756;51.982;5.648;2023-09-18T09:50:47;22.1;72.7
78463;SHT31;67756;51.982;5.648;2023-09-18T09:53:17;22.1;73.2
78463;SHT31;67756;51.982;5.648;2023-09-18T09:55:55;22.2;73.6
78463;SHT31;67756;51.982;5.648;2023-09-18T09:58:27;22.3;71.6
78463;SHT31;67756;51.982;5.648;2023-09-18T10:01:03;22.4;71.3
78463;SHT31;67756;51.982;5.648;2023-09-18T10:03:36;22.4;70.8
78463;SHT31;67756;51.982;5.648;2023-09-18T10:06:09;22.5;70.2
78463;SHT31;67756;51.982;5.648;2023-09-18T10:08:40;22.6;69.5
78463;SHT31;67756;51.982;5.648;2023-09-18T10:11:12;22.6;68.9
78463;SHT31;67756;51.982;5.648;2023-09-18T10:13:47;22.7;69.7
78463;SHT31;67756;51.982;5.648;2023-09-18T10:16:17;22.7;69.6
78463;SHT31;67756;51.982;5.648;2023-09-18T10:18:55;22.8;69.2
78463;SHT31;67756;51.982;5.648;2023-09-18T10:21:35;22.9;68.7
78463;SHT31;67756;51.982;5.648;2023-09-18T10:24:17;22.9;67.2
78463;SHT31;67756;51.982;5.648;2023-09-18T10:26:51;23.0;66.8
78463;SHT31;67756;51.982;5.648;2023-09-18T10:29:25;23.0;67.0
78463;SHT31;67756;51.982;5.648;2023-09-18T10:31:54;23.0;67.5
78463;SHT31;67756;51.982;5.648;2023-09-18T10:34:24;23.0;67.5
78463;SHT31;67756;51.982;5.648;2023-09-18T10:36:54;23.0;68.9
78463;SHT31;67756;51.982;5.648;2023-09-18T10:39:25;23.0;66.9
78463;SHT31;67756;51.982;5.648;2023-09-18T10:41:55;23.0;66.9
78463;SHT31;67756;51.982;5.648;2023-09-18T10:44:25;23.0;68.1
78463;SHT31;67756;51.982;5.648;2023-09-18T10:46:54;22.9;69.3
78463;SHT31;67756;51.982;5.648;2023-09-18T10:49:26;22.9;69.6
78463;SHT31;67756;51.982;5.648;2023-09-18T10:51:56;22.8;69.3
78463;SHT31;67756;51.982;5.648;2023-09-18T10:54:29;22.8;69.7
78463;SHT31;67756;51.982;5.648;2023-09-18T10:56:58;22.7;69.0
78463;SHT31;67756;51.982;5.648;2023-09-18T10:59:28;22.7;70.2
78463;SHT31;67756;51.982;5.648;2023-09-18T11:02:02;22.7;69.5
78463;SHT31;67756;51.982;5.648;2023-09-18T11:04:32;22.7;69.4
78463;SHT31;67756;51.982;5.648;2023-09-18T11:07:03;22.8;69.4
78463;SHT31;67756;51.982;5.648;2023-09-18T11:09:43;22.8;68.7
78463;SHT31;67756;51.982;5.648;2023-09-18T11:12:15;22.9;68.3
78463;SHT31;67756;51.982;5.648;2023-09-18T11:14:46;23.0;67.2
78463;SHT31;67756;51.982;5.648;2023-09-18T11:17:33;23.1;68.4
78463;SHT31;67756;51.982;5.648;2023-09-18T11:20:16;23.2;67.8
78463;SHT31;67756;51.982;5.648;2023-09-18T11:22:48;23.3;66.7
78463;SHT31;67756;51.982;5.648;2023-09-18T11:25:37;23.3;65.6
78463;SHT31;67756;51.982;5.648;2023-09-18T11:28:08;23.4;64.6
78463;SHT31;67756;51.982;5.648;2023-09-18T11:30:37;23.4;64.0
78463;SHT31;67756;51.982;5.648;2023-09-18T11:33:09;23.4;64.2
78463;SHT31;67756;51.982;5.648;2023-09-18T11:35:38;23.4;64.9
78463;SHT31;67756;51.982;5.648;2023-09-18T11:38:09;23.4;65.4
78463;SHT31;67756;51.982;5.648;2023-09-18T11:40:39;23.5;65.8
78463;SHT31;67756;51.982;5.648;2023-09-18T11:43:24;23.6;65.6
78463;SHT31;67756;51.982;5.648;2023-09-18T11:45:57;23.8;63.9
78463;SHT31;67756;51.982;5.648;2023-09-18T11:48:27;24.0;64.1
78463;SHT31;67756;51.982;5.648;2023-09-18T11:50:57;24.2;63.2
78463;SHT31;67756;51.982;5.648;2023-09-18T11:53:34;24.5;63.3
78463;SHT31;67756;51.982;5.648;2023-09-18T11:56:10;24.9;60.2
78463;SHT31;67756;51.982;5.648;2023-09-18T11:58:46;25.2;59.4
78463;SHT31;67756;51.982;5.648;2023-09-18T12:01:15;25.4;57.6
78463;SHT31;67756;51.982;5.648;2023-09-18T12:03:45;25.6;57.4
78463;SHT31;67756;51.982;5.648;2023-09-18T12:06:13;25.7;56.1
78463;SHT31;67756;51.982;5.648;2023-09-18T12:08:42;25.9;54.7
78463;SHT31;67756;51.982;5.648;2023-09-18T12:11:13;25.9;54.6
78463;SHT31;67756;51.982;5.648;2023-09-18T12:13:46;25.9;54.1
78463;SHT31;67756;51.982;5.648;2023-09-18T12:16:15;25.7;54.2
78463;SHT31;67756;51.982;5.648;2023-09-18T12:18:48;25.5;55.0
78463;SHT31;67756;51.982;5.648;2023-09-18T12:21:17;25.3;55.9
78463;SHT31;67756;51.982;5.648;2023-09-18T12:23:46;25.2;56.8
78463;SHT31;67756;51.982;5.648;2023-09-18T12:26:16;25.2;56.9
78463;SHT31;67756;51.982;5.648;2023-09-18T12:28:46;25.2;57.8
78463;SHT31;67756;51.982;5.648;2023-09-18T12:31:16;25.3;57.3
78463;SHT31;67756;51.982;5.648;2023-09-18T12:33:45;25.4;56.7
78463;SHT31;67756;51.982;5.648;2023-09-18T12:36:20;25.5;57.5
78463;SHT31;67756;51.982;5.648;2023-09-18T12:38:59;25.8;55.7
78463;SHT31;67756;51.982;5.648;2023-09-18T12:41:28;26.3;54.6
78463;SHT31;67756;51.982;5.648;2023-09-18T12:43:59;26.9;53.6
78463;SHT31;67756;51.982;5.648;2023-09-18T12:46:30;27.4;51.1
78463;SHT31;67756;51.982;5.648;2023-09-18T12:49:01;27.7;50.8
78463;SHT31;67756;51.982;5.648;2023-09-18T12:51:36;27.9;50.6
78463;SHT31;67756;51.982;5.648;2023-09-18T12:54:04;28.0;49.5
78463;SHT31;67756;51.982;5.648;2023-09-18T12:56:39;28.1;48.9
78463;SHT31;67756;51.982;5.648;2023-09-18T12:59:08;28.1;48.6
78463;SHT31;67756;51.982;5.648;2023-09-18T13:01:40;28.0;48.2
78463;SHT31;67756;51.982;5.648;2023-09-18T13:04:12;27.9;48.8
78463;SHT31;67756;51.982;5.648;2023-09-18T13:06:40;27.9;49.3
78463;SHT31;67756;51.982;5.648;2023-09-18T13:09:18;27.9;49.2
78463;SHT31;67756;51.982;5.648;2023-09-18T13:11:56;28.2;49.5
78463;SHT31;67756;51.982;5.648;2023-09-18T13:14:25;28.4;47.3
78463;SHT31;67756;51.982;5.648;2023-09-18T13:17:03;28.5;46.7
78463;SHT31;67756;51.982;5.648;2023-09-18T13:19:32;28.5;47.2
78463;SHT31;67756;51.982;5.648;2023-09-18T13:22:00;28.6;47.5
78463;SHT31;67756;51.982;5.648;2023-09-18T13:24:31;28.6;47.3
78463;SHT31;67756;51.982;5.648;2023-09-18T13:27:00;28.6;46.6
78463;SHT31;67756;51.982;5.648;2023-09-18T13:29:29;28.6;46.7
78463;SHT31;67756;51.982;5.648;2023-09-18T13:31:59;28.6;46.7
78463;SHT31;67756;51.982;5.648;2023-09-18T13:34:30;28.5;46.5
78463;SHT31;67756;51.982;5.648;2023-09-18T13:36:59;28.4;46.9
78463;SHT31;67756;51.982;5.648;2023-09-18T13:39:27;28.3;46.7
78463;SHT31;67756;51.982;5.648;2023-09-18T13:41:56;28.3;48.1
78463;SHT31;67756;51.982;5.648;2023-09-18T13:44:25;28.5;46.4
78463;SHT31;67756;51.982;5.648;2023-09-18T13:46:53;28.6;47.3
78463;SHT31;67756;51.982;5.648;2023-09-18T13:49:22;28.9;47.0
78463;SHT31;67756;51.982;5.648;2023-09-18T13:51:50;29.2;46.4
78463;SHT31;67756;51.982;5.648;2023-09-18T13:54:20;29.5;45.4
78463;SHT31;67756;51.982;5.648;2023-09-18T13:56:49;29.7;44.6
78463;SHT31;67756;51.982;5.648;2023-09-18T13:59:17;29.8;43.5
78463;SHT31;67756;51.982;5.648;2023-09-18T14:01:46;29.9;43.6
78463;SHT31;67756;51.982;5.648;2023-09-18T14:04:14;30.0;43.2
78463;SHT31;67756;51.982;5.648;2023-09-18T14:06:43;30.0;43.9
78463;SHT31;67756;51.982;5.648;2023-09-18T14:09:13;30.1;43.5
78463;SHT31;67756;51.982;5.648;2023-09-18T14:11:43;30.3;43.6
78463;SHT31;67756;51.982;5.648;2023-09-18T14:14:12;30.4;42.4
78463;SHT31;67756;51.982;5.648;2023-09-18T14:16:40;30.5;43.0
78463;SHT31;67756;51.982;5.648;2023-09-18T14:19:10;30.6;41.5
78463;SHT31;67756;51.982;5.648;2023-09-18T14:21:38;30.7;41.6
78463;SHT31;67756;51.982;5.648;2023-09-18T14:24:07;30.8;41.1
78463;SHT31;67756;51.982;5.648;2023-09-18T14:26:36;31.0;40.8
78463;SHT31;67756;51.982;5.648;2023-09-18T14:29:07;31.0;39.4
78463;SHT31;67756;51.982;5.648;2023-09-18T14:31:37;30.9;39.2
78463;SHT31;67756;51.982;5.648;2023-09-18T14:34:06;30.5;39.9
78463;SHT31;67756;51.982;5.648;2023-09-18T14:36:35;30.1;40.6
78463;SHT31;67756;51.982;5.648;2023-09-18T14:39:06;29.9;40.8
78463;SHT31;67756;51.982;5.648;2023-09-18T14:41:36;29.8;40.7
78463;SHT31;67756;51.982;5.648;2023-09-18T14:44:06;29.6;40.8
78463;SHT31;67756;51.982;5.648;2023-09-18T14:46:36;29.3;41.7
78463;SHT31;67756;51.982;5.648;2023-09-18T14:49:07;29.1;41.8
78463;SHT31;67756;51.982;5.648;2023-09-18T14:51:36;28.8;42.7
78463;SHT31;67756;51.982;5.648;2023-09-18T14:54:07;28.6;43.3
78463;SHT31;67756;51.982;5.648;2023-09-18T14:56:37;28.4;43.2
78463;SHT31;67756;51.982;5.648;2023-09-18T14:59:06;28.2;43.9
78463;SHT31;67756;51.982;5.648;2023-09-18T15:01:35;28.0;44.6
78463;SHT31;67756;51.982;5.648;2023-09-18T15:04:04;27.9;44.7
78463;SHT31;67756;51.982;5.648;2023-09-18T15:06:33;27.7;45.6
78463;SHT31;67756;51.982;5.648;2023-09-18T15:09:01;27.6;45.7
78463;SHT31;67756;51.982;5.648;2023-09-18T15:11:30;27.4;46.2
78463;SHT31;67756;51.982;5.648;2023-09-18T15:14:01;27.2;46.2
78463;SHT31;67756;51.982;5.648;2023-09-18T15:16:29;27.1;46.8
78463;SHT31;67756;51.982;5.648;2023-09-18T15:19:00;26.9;47.7
78463;SHT31;67756;51.982;5.648;2023-09-18T15:21:30;26.8;52.0
78463;SHT31;67756;51.982;5.648;2023-09-18T15:23:59;26.2;52.8
78463;SHT31;67756;51.982;5.648;2023-09-18T15:26:28;22.8;64.1
78463;SHT31;67756;51.982;5.648;2023-09-18T15:28:56;21.5;69.8
78463;SHT31;67756;51.982;5.648;2023-09-18T15:31:28;21.1;74.2
78463;SHT31;67756;51.982;5.648;2023-09-18T15:33:56;20.8;74.0
78463;SHT31;67756;51.982;5.648;2023-09-18T15:36:25;20.6;75.1
78463;SHT31;67756;51.982;5.648;2023-09-18T15:38:53;20.4;74.7
78463;SHT31;67756;51.982;5.648;2023-09-18T15:41:23;20.2;76.5
78463;SHT31;67756;51.982;5.648;2023-09-18T15:43:51;20.1;77.6
78463;SHT31;67756;51.982;5.648;2023-09-18T15:46:20;20.0;77.1
78463;SHT31;67756;51.982;5.648;2023-09-18T15:48:48;19.9;77.5
78463;SHT31;67756;51.982;5.648;2023-09-18T15:51:17;19.7;77.6
78463;SHT31;67756;51.982;5.648;2023-09-18T15:53:46;19.6;79.2
78463;SHT31;67756;51.982;5.648;2023-09-18T15:56:14;19.5;79.7
78463;SHT31;67756;51.982;5.648;2023-09-18T15:58:43;19.4;77.8
78463;SHT31;67756;51.982;5.648;2023-09-18T16:01:11;19.3;79.9
78463;SHT31;67756;51.982;5.648;2023-09-18T16:03:41;19.2;79.5
78463;SHT31;67756;51.982;5.648;2023-09-18T16:06:13;19.2;83.0
78463;SHT31;67756;51.982;5.648;2023-09-18T16:08:44;19.2;81.1
78463;SHT31;67756;51.982;5.648;2023-09-18T16:11:14;19.2;81.9
78463;SHT31;67756;51.982;5.648;2023-09-18T16:13:43;19.2;82.8
78463;SHT31;67756;51.982;5.648;2023-09-18T16:16:14;19.2;81.1
78463;SHT31;67756;51.982;5.648;2023-09-18T16:18:42;19.3;80.7
78463;SHT31;67756;51.982;5.648;2023-09-18T16:21:10;19.3;79.8